sensor_id;sensor_type;location;lat;lon;timestamp;P1;P2;P0
53658;PMS5003;41524;35.624;139.698;2022-10-17T00:00:09;33.00;33.00;
53658;PMS5003;41524;35.624;139.698;2022-10-17T00:05:09;41.00;37.00;
53658;PMS5003;41524;35.624;139.698;2022-10-17T00:10:09;37.00;35.00;
53658;PMS5003;41524;35.624;139.698;2022-10-17T00:15:10;47.00;42.00;
53658;PMS5003;41524;35.624;139.698;2022-10-17T00:20:14;38.00;37.00;
53658;PMS5003;41524;35.624;139.698;2022-10-17T00:25:13;36.00;34.00;
53658;PMS5003;41524;35.624;139.698;2022-10-17T00:30:10;44.00;42.00;
53658;PMS5003;41524;35.624;139.698;2022-10-17T00:35:10;40.00;40.00;
53658;PMS5003;41524;35.624;139.698;2022-10-17T00:40:14;47.00;43.00;
53658;PMS5003;41524;35.624;139.698;2022-10-17T00:45:15;42.00;40.00;
53658;PMS5003;41524;35.624;139.698;2022-10-17T00:50:12;45.00;42.00;
53658;PMS5003;41524;35.624;139.698;2022-10-17T00:55:09;44.00;40.00;
53658;PMS5003;41524;35.624;139.698;2022-10-17T01:00:10;47.00;41.00;
53658;PMS5003;41524;35.624;139.698;2022-10-17T01:05:10;40.00;36.00;
53658;PMS5003;41524;35.624;139.698;2022-10-17T01:10:09;40.00;38.00;
53658;PMS5003;41524;35.624;139.698;2022-10-17T01:15:11;49.00;41.00;
53658;PMS5003;41524;35.624;139.698;2022-10-17T01:20:45;51.00;44.00;
53658;PMS5003;41524;35.624;139.698;2022-10-17T01:25:15;42.00;41.00;
53658;PMS5003;41524;35.624;139.698;2022-10-17T01:30:14;45.00;40.00;
53658;PMS5003;41524;35.624;139.698;2022-10-17T01:35:10;46.00;44.00;
53658;PMS5003;41524;35.624;139.698;2022-10-17T01:40:10;39.00;34.00;
53658;PMS5003;41524;35.624;139.698;2022-10-17T01:45:11;45.00;40.00;
53658;PMS5003;41524;35.624;139.698;2022-10-17T01:50:13;40.00;34.00;
53658;PMS5003;41524;35.624;139.698;2022-10-17T01:55:15;44.00;38.00;
53658;PMS5003;41524;35.624;139.698;2022-10-17T02:00:10;48.00;43.00;
53658;PMS5003;41524;35.624;139.698;2022-10-17T02:05:09;52.00;47.00;
53658;PMS5003;41524;35.624;139.698;2022-10-17T02:10:11;50.00;46.00;
53658;PMS5003;41524;35.624;139.698;2022-10-17T02:15:15;43.00;41.00;
53658;PMS5003;41524;35.624;139.698;2022-10-17T02:20:12;42.00;40.00;
53658;PMS5003;41524;35.624;139.698;2022-10-17T02:25:12;52.00;44.00;
53658;PMS5003;41524;35.624;139.698;2022-10-17T02:30:10;43.00;38.00;
53658;PMS5003;41524;35.624;139.698;2022-10-17T02:35:10;45.00;41.00;
53658;PMS5003;41524;35.624;139.698;2022-10-17T02:40:09;44.00;44.00;
53658;PMS5003;41524;35.624;139.698;2022-10-17T02:45:09;39.00;39.00;
53658;PMS5003;41524;35.624;139.698;2022-10-17T02:50:13;40.00;39.00;
53658;PMS5003;41524;35.624;139.698;2022-10-17T02:55:15;43.00;39.00;
53658;PMS5003;41524;35.624;139.698;2022-10-17T03:00:10;45.00;40.00;
53658;PMS5003;41524;35.624;139.698;2022-10-17T03:05:11;52.00;47.00;
53658;PMS5003;41524;35.624;139.698;2022-10-17T03:10:09;48.00;43.00;
53658;PMS5003;41524;35.624;139.698;2022-10-17T03:15:14;41.00;39.00;
53658;PMS5003;41524;35.624;139.698;2022-10-17T03:20:09;48.00;45.00;
53658;PMS5003;41524;35.624;139.698;2022-10-17T03:25:09;72.00;64.00;
53658;PMS5003;41524;35.624;139.698;2022-10-17T03:30:10;60.00;54.00;
53658;PMS5003;41524;35.624;139.698;2022-10-17T03:35:09;47.00;43.00;
53658;PMS5003;41524;35.624;139.698;2022-10-17T03:40:10;57.00;49.00;
53658;PMS5003;41524;35.624;139.698;2022-10-17T03:45:09;51.00;48.00;
53658;PMS5003;41524;35.624;139.698;2022-10-17T03:50:09;53.00;49.00;
53658;PMS5003;41524;35.624;139.698;2022-10-17T03:55:14;52.00;46.00;
53658;PMS5003;41524;35.624;139.698;2022-10-17T04:00:09;55.00;50.00;
53658;PMS5003;41524;35.624;139.698;2022-10-17T04:05:09;56.00;50.00;
53658;PMS5003;41524;35.624;139.698;2022-10-17T04:10:09;53.00;48.00;
53658;PMS5003;41524;35.624;139.698;2022-10-17T04:15:09;52.00;49.00;
53658;PMS5003;41524;35.624;139.698;2022-10-17T04:20:09;61.00;56.00;
53658;PMS5003;41524;35.624;139.698;2022-10-17T04:25:13;48.00;44.00;
53658;PMS5003;41524;35.624;139.698;2022-10-17T04:30:13;54.00;50.00;
53658;PMS5003;41524;35.624;139.698;2022-10-17T04:35:10;43.00;40.00;
53658;PMS5003;41524;35.624;139.698;2022-10-17T04:40:09;47.00;45.00;
53658;PMS5003;41524;35.624;139.698;2022-10-17T04:45:09;53.00;48.00;
53658;PMS5003;41524;35.624;139.698;2022-10-17T04:50:09;57.00;48.00;
53658;PMS5003;41524;35.624;139.698;2022-10-17T04:55:10;56.00;48.00;
53658;PMS5003;41524;35.624;139.698;2022-10-17T05:00:12;47.00;47.00;
53658;PMS5003;41524;35.624;139.698;2022-10-17T05:05:11;53.00;47.00;
53658;PMS5003;41524;35.624;139.698;2022-10-17T05:10:09;48.00;46.00;
53658;PMS5003;41524;35.624;139.698;2022-10-17T05:15:15;56.00;54.00;
53658;PMS5003;41524;35.624;139.698;2022-10-17T05:20:10;50.00;47.00;
53658;PMS5003;41524;35.624;139.698;2022-10-17T05:25:09;59.00;57.00;
53658;PMS5003;41524;35.624;139.698;2022-10-17T05:30:09;52.00;50.00;
53658;PMS5003;41524;35.624;139.698;2022-10-17T05:35:08;57.00;48.00;
53658;PMS5003;41524;35.624;139.698;2022-10-17T05:40:13;72.00;59.00;
53658;PMS5003;41524;35.624;139.698;2022-10-17T05:45:10;62.00;53.00;
53658;PMS5003;41524;35.624;139.698;2022-10-17T05:50:08;55.00;51.00;
53658;PMS5003;41524;35.624;139.698;2022-10-17T05:55:09;51.00;47.00;
53658;PMS5003;41524;35.624;139.698;2022-10-17T06:00:10;52.00;42.00;
53658;PMS5003;41524;35.624;139.698;2022-10-17T06:05:09;56.00;51.00;
53658;PMS5003;41524;35.624;139.698;2022-10-17T06:10:09;60.00;55.00;
53658;PMS5003;41524;35.624;139.698;2022-10-17T06:15:10;50.00;48.00;
53658;PMS5003;41524;35.624;139.698;2022-10-17T06:20:10;56.00;48.00;
53658;PMS5003;41524;35.624;139.698;2022-10-17T06:25:09;60.00;55.00;
53658;PMS5003;41524;35.624;139.698;2022-10-17T06:30:13;51.00;48.00;
53658;PMS5003;41524;35.624;139.698;2022-10-17T06:35:08;46.00;43.00;
53658;PMS5003;41524;35.624;139.698;2022-10-17T06:40:08;49.00;48.00;
53658;PMS5003;41524;35.624;139.698;2022-10-17T06:45:09;52.00;47.00;
53658;PMS5003;41524;35.624;139.698;2022-10-17T06:50:18;51.00;49.00;
53658;PMS5003;41524;35.624;139.698;2022-10-17T06:55:09;55.00;49.00;
53658;PMS5003;41524;35.624;139.698;2022-10-17T07:00:10;57.00;51.00;
53658;PMS5003;41524;35.624;139.698;2022-10-17T07:05:09;63.00;57.00;
53658;PMS5003;41524;35.624;139.698;2022-10-17T07:10:08;61.00;59.00;
53658;PMS5003;41524;35.624;139.698;2022-10-17T07:15:10;54.00;48.00;
53658;PMS5003;41524;35.624;139.698;2022-10-17T07:20:09;61.00;55.00;
53658;PMS5003;41524;35.624;139.698;2022-10-17T07:25:14;58.00;52.00;
53658;PMS5003;41524;35.624;139.698;2022-10-17T07:30:10;62.00;53.00;
53658;PMS5003;41524;35.624;139.698;2022-10-17T07:35:10;58.00;52.00;
53658;PMS5003;41524;35.624;139.698;2022-10-17T07:45:09;57.00;53.00;
53658;PMS5003;41524;35.624;139.698;2022-10-17T07:50:09;53.00;49.00;
53658;PMS5003;41524;35.624;139.698;2022-10-17T07:55:09;55.00;51.00;
53658;PMS5003;41524;35.624;139.698;2022-10-17T08:00:09;55.00;54.00;
53658;PMS5003;41524;35.624;139.698;2022-10-17T08:05:11;155.00;128.00;
53658;PMS5003;41524;35.624;139.698;2022-10-17T08:10:09;90.00;87.00;
53658;PMS5003;41524;35.624;139.698;2022-10-17T08:15:09;65.00;62.00;
53658;PMS5003;41524;35.624;139.698;2022-10-17T08:20:09;59.00;52.00;
53658;PMS5003;41524;35.624;139.698;2022-10-17T08:25:13;77.00;72.00;
53658;PMS5003;41524;35.624;139.698;2022-10-17T08:30:14;58.00;54.00;
53658;PMS5003;41524;35.624;139.698;2022-10-17T08:35:09;59.00;54.00;
53658;PMS5003;41524;35.624;139.698;2022-10-17T08:40:10;60.00;54.00;
53658;PMS5003;41524;35.624;139.698;2022-10-17T08:45:11;67.00;58.00;
53658;PMS5003;41524;35.624;139.698;2022-10-17T08:50:11;65.00;60.00;
53658;PMS5003;41524;35.624;139.698;2022-10-17T08:55:12;68.00;63.00;
53658;PMS5003;41524;35.624;139.698;2022-10-17T09:00:13;66.00;54.00;
53658;PMS5003;41524;35.624;139.698;2022-10-17T09:05:18;59.00;55.00;
53658;PMS5003;41524;35.624;139.698;2022-10-17T09:10:11;61.00;59.00;
53658;PMS5003;41524;35.624;139.698;2022-10-17T09:15:15;59.00;51.00;
53658;PMS5003;41524;35.624;139.698;2022-10-17T09:20:09;62.00;58.00;
53658;PMS5003;41524;35.624;139.698;2022-10-17T09:25:10;67.00;60.00;
53658;PMS5003;41524;35.624;139.698;2022-10-17T09:30:19;68.00;61.00;
53658;PMS5003;41524;35.624;139.698;2022-10-17T09:35:14;69.00;66.00;
53658;PMS5003;41524;35.624;139.698;2022-10-17T09:40:11;70.00;67.00;
53658;PMS5003;41524;35.624;139.698;2022-10-17T09:45:15;63.00;62.00;
53658;PMS5003;41524;35.624;139.698;2022-10-17T09:50:12;70.00;64.00;
53658;PMS5003;41524;35.624;139.698;2022-10-17T09:55:14;69.00;64.00;
53658;PMS5003;41524;35.624;139.698;2022-10-17T10:00:18;70.00;64.00;
53658;PMS5003;41524;35.624;139.698;2022-10-17T10:05:15;65.00;58.00;
53658;PMS5003;41524;35.624;139.698;2022-10-17T10:10:22;72.00;66.00;
53658;PMS5003;41524;35.624;139.698;2022-10-17T10:15:28;76.00;70.00;
53658;PMS5003;41524;35.624;139.698;2022-10-17T10:20:31;82.00;71.00;
53658;PMS5003;41524;35.624;139.698;2022-10-17T10:25:15;67.00;62.00;
53658;PMS5003;41524;35.624;139.698;2022-10-17T10:30:16;70.00;65.00;
53658;PMS5003;41524;35.624;139.698;2022-10-17T10:35:17;70.00;63.00;
53658;PMS5003;41524;35.624;139.698;2022-10-17T10:40:14;63.00;57.00;
53658;PMS5003;41524;35.624;139.698;2022-10-17T10:45:14;54.00;52.00;
53658;PMS5003;41524;35.624;139.698;2022-10-17T10:50:20;60.00;54.00;
53658;PMS5003;41524;35.624;139.698;2022-10-17T10:55:19;73.00;70.00;
53658;PMS5003;41524;35.624;139.698;2022-10-17T11:00:16;70.00;63.00;
53658;PMS5003;41524;35.624;139.698;2022-10-17T11:05:15;64.00;62.00;
53658;PMS5003;41524;35.624;139.698;2022-10-17T11:10:11;65.00;55.00;
53658;PMS5003;41524;35.624;139.698;2022-10-17T11:15:20;60.00;56.00;
53658;PMS5003;41524;35.624;139.698;2022-10-17T11:20:16;68.00;65.00;
53658;PMS5003;41524;35.624;139.698;2022-10-17T11:25:13;59.00;53.00;
53658;PMS5003;41524;35.624;139.698;2022-10-17T11:30:10;59.00;56.00;
53658;PMS5003;41524;35.624;139.698;2022-10-17T11:35:14;59.00;54.00;
53658;PMS5003;41524;35.624;139.698;2022-10-17T11:40:16;66.00;57.00;
53658;PMS5003;41524;35.624;139.698;2022-10-17T11:45:10;61.00;54.00;
53658;PMS5003;41524;35.624;139.698;2022-10-17T11:50:15;54.00;52.00;
53658;PMS5003;41524;35.624;139.698;2022-10-17T11:55:15;60.00;54.00;
53658;PMS5003;41524;35.624;139.698;2022-10-17T12:00:16;54.00;54.00;
53658;PMS5003;41524;35.624;139.698;2022-10-17T12:05:12;61.00;53.00;
53658;PMS5003;41524;35.624;139.698;2022-10-17T12:10:19;55.00;49.00;
53658;PMS5003;41524;35.624;139.698;2022-10-17T12:15:30;60.00;57.00;
53658;PMS5003;41524;35.624;139.698;2022-10-17T12:20:31;58.00;57.00;
53658;PMS5003;41524;35.624;139.698;2022-10-17T12:25:22;53.00;51.00;
53658;PMS5003;41524;35.624;139.698;2022-10-17T12:30:17;59.00;54.00;
53658;PMS5003;41524;35.624;139.698;2022-10-17T12:35:12;62.00;59.00;
53658;PMS5003;41524;35.624;139.698;2022-10-17T12:40:38;60.00;56.00;
53658;PMS5003;41524;35.624;139.698;2022-10-17T12:45:55;63.00;59.00;
53658;PMS5003;41524;35.624;139.698;2022-10-17T12:50:58;61.00;56.00;
53658;PMS5003;41524;35.624;139.698;2022-10-17T12:55:10;56.00;51.00;
53658;PMS5003;41524;35.624;139.698;2022-10-17T13:00:17;64.00;58.00;
53658;PMS5003;41524;35.624;139.698;2022-10-17T13:05:12;62.00;58.00;
53658;PMS5003;41524;35.624;139.698;2022-10-17T13:10:15;64.00;55.00;
53658;PMS5003;41524;35.624;139.698;2022-10-17T13:15:10;69.00;59.00;
53658;PMS5003;41524;35.624;139.698;2022-10-17T13:20:17;63.00;55.00;
53658;PMS5003;41524;35.624;139.698;2022-10-17T13:25:13;61.00;61.00;
53658;PMS5003;41524;35.624;139.698;2022-10-17T13:30:22;60.00;59.00;
53658;PMS5003;41524;35.624;139.698;2022-10-17T13:35:15;71.00;65.00;
53658;PMS5003;41524;35.624;139.698;2022-10-17T13:40:14;65.00;59.00;
53658;PMS5003;41524;35.624;139.698;2022-10-17T13:45:16;54.00;51.00;
53658;PMS5003;41524;35.624;139.698;2022-10-17T13:50:12;73.00;68.00;
53658;PMS5003;41524;35.624;139.698;2022-10-17T13:55:15;65.00;61.00;
53658;PMS5003;41524;35.624;139.698;2022-10-17T14:00:16;56.00;55.00;
53658;PMS5003;41524;35.624;139.698;2022-10-17T14:05:16;55.00;52.00;
53658;PMS5003;41524;35.624;139.698;2022-10-17T14:10:18;64.00;57.00;
53658;PMS5003;41524;35.624;139.698;2022-10-17T14:15:11;64.00;58.00;
53658;PMS5003;41524;35.624;139.698;2022-10-17T14:20:18;50.00;48.00;
53658;PMS5003;41524;35.624;139.698;2022-10-17T14:25:25;60.00;50.00;
53658;PMS5003;41524;35.624;139.698;2022-10-17T14:30:31;55.00;50.00;
53658;PMS5003;41524;35.624;139.698;2022-10-17T14:36:03;40.00;36.00;
53658;PMS5003;41524;35.624;139.698;2022-10-17T14:40:14;43.00;40.00;
53658;PMS5003;41524;35.624;139.698;2022-10-17T14:45:15;47.00;44.00;
53658;PMS5003;41524;35.624;139.698;2022-10-17T14:50:20;48.00;47.00;
53658;PMS5003;41524;35.624;139.698;2022-10-17T14:55:19;50.00;47.00;
53658;PMS5003;41524;35.624;139.698;2022-10-17T15:00:12;49.00;47.00;
53658;PMS5003;41524;35.624;139.698;2022-10-17T15:05:15;47.00;46.00;
53658;PMS5003;41524;35.624;139.698;2022-10-17T15:10:19;48.00;45.00;
53658;PMS5003;41524;35.624;139.698;2022-10-17T15:15:20;31.00;28.00;
53658;PMS5003;41524;35.624;139.698;2022-10-17T15:20:15;34.00;31.00;
53658;PMS5003;41524;35.624;139.698;2022-10-17T15:25:09;33.00;31.00;
53658;PMS5003;41524;35.624;139.698;2022-10-17T15:30:15;34.00;31.00;
53658;PMS5003;41524;35.624;139.698;2022-10-17T15:35:09;28.00;24.00;
53658;PMS5003;41524;35.624;139.698;2022-10-17T15:40:10;38.00;36.00;
53658;PMS5003;41524;35.624;139.698;2022-10-17T15:45:12;37.00;33.00;
53658;PMS5003;41524;35.624;139.698;2022-10-17T15:50:11;35.00;32.00;
53658;PMS5003;41524;35.624;139.698;2022-10-17T15:55:09;34.00;33.00;
53658;PMS5003;41524;35.624;139.698;2022-10-17T16:00:13;31.00;29.00;
53658;PMS5003;41524;35.624;139.698;2022-10-17T16:05:11;26.00;26.00;
53658;PMS5003;41524;35.624;139.698;2022-10-17T16:10:09;35.00;33.00;
53658;PMS5003;41524;35.624;139.698;2022-10-17T16:15:12;36.00;35.00;
53658;PMS5003;41524;35.624;139.698;2022-10-17T16:20:10;33.00;33.00;
53658;PMS5003;41524;35.624;139.698;2022-10-17T16:25:17;32.00;31.00;
53658;PMS5003;41524;35.624;139.698;2022-10-17T16:30:08;29.00;25.00;
53658;PMS5003;41524;35.624;139.698;2022-10-17T16:35:10;26.00;25.00;
53658;PMS5003;41524;35.624;139.698;2022-10-17T16:40:11;23.00;22.00;
53658;PMS5003;41524;35.624;139.698;2022-10-17T16:45:10;30.00;29.00;
53658;PMS5003;41524;35.624;139.698;2022-10-17T16:50:13;34.00;29.00;
53658;PMS5003;41524;35.624;139.698;2022-10-17T16:55:10;28.00;24.00;
53658;PMS5003;41524;35.624;139.698;2022-10-17T17:00:10;27.00;23.00;
53658;PMS5003;41524;35.624;139.698;2022-10-17T17:05:09;22.00;22.00;
53658;PMS5003;41524;35.624;139.698;2022-10-17T17:10:09;22.00;22.00;
53658;PMS5003;41524;35.624;139.698;2022-10-17T17:15:09;29.00;27.00;
53658;PMS5003;41524;35.624;139.698;2022-10-17T17:20:09;30.00;27.00;
53658;PMS5003;41524;35.624;139.698;2022-10-17T17:25:09;20.00;19.00;
53658;PMS5003;41524;35.624;139.698;2022-10-17T17:30:09;13.00;13.00;
53658;PMS5003;41524;35.624;139.698;2022-10-17T17:35:09;17.00;13.00;
53658;PMS5003;41524;35.624;139.698;2022-10-17T17:40:10;21.00;18.00;
53658;PMS5003;41524;35.624;139.698;2022-10-17T17:45:09;13.00;13.00;
53658;PMS5003;41524;35.624;139.698;2022-10-17T17:50:09;12.00;12.00;
53658;PMS5003;41524;35.624;139.698;2022-10-17T17:55:08;22.00;19.00;
53658;PMS5003;41524;35.624;139.698;2022-10-17T18:00:09;12.00;12.00;
53658;PMS5003;41524;35.624;139.698;2022-10-17T18:05:09;11.00;10.00;
53658;PMS5003;41524;35.624;139.698;2022-10-17T18:10:08;11.00;10.00;
53658;PMS5003;41524;35.624;139.698;2022-10-17T18:15:09;9.00;8.00;
53658;PMS5003;41524;35.624;139.698;2022-10-17T18:20:09;10.00;10.00;
53658;PMS5003;41524;35.624;139.698;2022-10-17T18:25:09;9.00;9.00;
53658;PMS5003;41524;35.624;139.698;2022-10-17T18:30:09;12.00;12.00;
53658;PMS5003;41524;35.624;139.698;2022-10-17T18:35:09;11.00;10.00;
53658;PMS5003;41524;35.624;139.698;2022-10-17T18:40:09;13.00;13.00;
53658;PMS5003;41524;35.624;139.698;2022-10-17T18:45:10;16.00;14.00;
53658;PMS5003;41524;35.624;139.698;2022-10-17T18:50:13;15.00;15.00;
53658;PMS5003;41524;35.624;139.698;2022-10-17T18:55:09;19.00;16.00;
53658;PMS5003;41524;35.624;139.698;2022-10-17T19:00:12;22.00;17.00;
53658;PMS5003;41524;35.624;139.698;2022-10-17T19:05:09;20.00;19.00;
53658;PMS5003;41524;35.624;139.698;2022-10-17T19:10:09;21.00;15.00;
53658;PMS5003;41524;35.624;139.698;2022-10-17T19:15:09;13.00;12.00;
53658;PMS5003;41524;35.624;139.698;2022-10-17T19:20:09;13.00;12.00;
53658;PMS5003;41524;35.624;139.698;2022-10-17T19:25:14;10.00;10.00;
53658;PMS5003;41524;35.624;139.698;2022-10-17T19:30:09;9.00;8.00;
53658;PMS5003;41524;35.624;139.698;2022-10-17T19:35:09;12.00;11.00;
53658;PMS5003;41524;35.624;139.698;2022-10-17T19:40:10;9.00;8.00;
53658;PMS5003;41524;35.624;139.698;2022-10-17T19:45:09;10.00;7.00;
53658;PMS5003;41524;35.624;139.698;2022-10-17T19:50:09;9.00;9.00;
53658;PMS5003;41524;35.624;139.698;2022-10-17T19:55:14;8.00;7.00;
53658;PMS5003;41524;35.624;139.698;2022-10-17T20:00:09;9.00;9.00;
53658;PMS5003;41524;35.624;139.698;2022-10-17T20:05:09;11.00;10.00;
53658;PMS5003;41524;35.624;139.698;2022-10-17T20:10:12;8.00;8.00;
53658;PMS5003;41524;35.624;139.698;2022-10-17T20:15:09;8.00;7.00;
53658;PMS5003;41524;35.624;139.698;2022-10-17T20:20:13;5.00;5.00;
53658;PMS5003;41524;35.624;139.698;2022-10-17T20:25:09;6.00;6.00;
53658;PMS5003;41524;35.624;139.698;2022-10-17T20:30:09;10.00;10.00;
53658;PMS5003;41524;35.624;139.698;2022-10-17T20:35:09;9.00;8.00;
53658;PMS5003;41524;35.624;139.698;2022-10-17T20:40:09;8.00;7.00;
53658;PMS5003;41524;35.624;139.698;2022-10-17T20:45:09;6.00;6.00;
53658;PMS5003;41524;35.624;139.698;2022-10-17T20:50:10;5.00;5.00;
53658;PMS5003;41524;35.624;139.698;2022-10-17T20:55:09;5.00;5.00;
53658;PMS5003;41524;35.624;139.698;2022-10-17T21:00:14;3.00;3.00;
53658;PMS5003;41524;35.624;139.698;2022-10-17T21:05:09;4.00;2.00;
53658;PMS5003;41524;35.624;139.698;2022-10-17T21:10:09;5.00;5.00;
53658;PMS5003;41524;35.624;139.698;2022-10-17T21:15:13;3.00;3.00;
53658;PMS5003;41524;35.624;139.698;2022-10-17T21:20:13;3.00;3.00;
53658;PMS5003;41524;35.624;139.698;2022-10-17T21:25:10;3.00;3.00;
53658;PMS5003;41524;35.624;139.698;2022-10-17T21:30:09;3.00;3.00;
53658;PMS5003;41524;35.624;139.698;2022-10-17T21:35:14;5.00;4.00;
53658;PMS5003;41524;35.624;139.698;2022-10-17T21:40:13;4.00;4.00;
53658;PMS5003;41524;35.624;139.698;2022-10-17T21:45:09;5.00;4.00;
53658;PMS5003;41524;35.624;139.698;2022-10-17T21:50:09;8.00;8.00;
53658;PMS5003;41524;35.624;139.698;2022-10-17T21:55:09;7.00;7.00;
53658;PMS5003;41524;35.624;139.698;2022-10-17T22:00:09;6.00;6.00;
53658;PMS5003;41524;35.624;139.698;2022-10-17T22:05:09;10.00;10.00;
53658;PMS5003;41524;35.624;139.698;2022-10-17T22:10:09;8.00;7.00;
53658;PMS5003;41524;35.624;139.698;2022-10-17T22:15:09;6.00;6.00;
53658;PMS5003;41524;35.624;139.698;2022-10-17T22:20:09;5.00;5.00;
53658;PMS5003;41524;35.624;139.698;2022-10-17T22:25:13;5.00;5.00;
53658;PMS5003;41524;35.624;139.698;2022-10-17T22:30:14;8.00;7.00;
53658;PMS5003;41524;35.624;139.698;2022-10-17T22:35:14;6.00;6.00;
53658;PMS5003;41524;35.624;139.698;2022-10-17T22:40:10;8.00;6.00;
53658;PMS5003;41524;35.624;139.698;2022-10-17T22:45:09;5.00;5.00;
53658;PMS5003;41524;35.624;139.698;2022-10-17T22:50:11;5.00;5.00;
53658;PMS5003;41524;35.624;139.698;2022-10-17T22:55:09;2.00;2.00;
53658;PMS5003;41524;35.624;139.698;2022-10-17T23:00:09;5.00;5.00;
53658;PMS5003;41524;35.624;139.698;2022-10-17T23:05:09;6.00;5.00;
53658;PMS5003;41524;35.624;139.698;2022-10-17T23:10:15;3.00;3.00;
53658;PMS5003;41524;35.624;139.698;2022-10-17T23:15:09;4.00;4.00;
53658;PMS5003;41524;35.624;139.698;2022-10-17T23:20:09;5.00;5.00;
53658;PMS5003;41524;35.624;139.698;2022-10-17T23:25:10;7.00;4.00;
53658;PMS5003;41524;35.624;139.698;2022-10-17T23:30:09;5.00;5.00;
53658;PMS5003;41524;35.624;139.698;2022-10-17T23:35:14;5.00;5.00;
53658;PMS5003;41524;35.624;139.698;2022-10-17T23:40:17;6.00;4.00;
53658;PMS5003;41524;35.624;139.698;2022-10-17T23:45:09;6.00;4.00;
53658;PMS5003;41524;35.624;139.698;2022-10-17T23:50:09;3.00;3.00;
53658;PMS5003;41524;35.624;139.698;2022-10-17T23:55:09;5.00;4.00;
